createdAt,value
2024-02-01T00:01:10.080Z,102290.88
2024-02-01T00:03:48.119Z,102294.47
2024-02-01T00:06:17.195Z,102289.19
2024-02-01T00:08:45.245Z,102286.56
2024-02-01T00:11:14.467Z,102282.19
2024-02-01T00:13:42.446Z,102287.50
2024-02-01T00:16:10.764Z,102281.25
2024-02-01T00:18:38.910Z,102274.97
2024-02-01T00:21:07.304Z,102266.03
2024-02-01T00:23:35.235Z,102262.31
2024-02-01T00:26:04.226Z,102257.88
2024-02-01T00:28:32.353Z,102261.25
2024-02-01T00:31:01.660Z,102253.19
2024-02-01T00:33:30.229Z,102250.34
2024-02-01T00:35:58.618Z,102245.78
2024-02-01T00:38:26.590Z,102242.03
2024-02-01T00:40:55.297Z,102234.88
2024-02-01T00:43:23.386Z,102242.00
2024-02-01T00:45:51.619Z,102230.56
2024-02-01T00:48:19.631Z,102232.47
2024-02-01T00:50:48.200Z,102233.41
2024-02-01T00:53:16.068Z,102226.38
2024-02-01T00:55:44.302Z,102224.56
2024-02-01T00:58:12.225Z,102212.22
2024-02-01T01:00:40.685Z,102212.41
2024-02-01T01:03:08.810Z,102208.88
2024-02-01T01:05:37.429Z,102208.09
2024-02-01T01:08:05.912Z,102196.69
2024-02-01T01:10:34.291Z,102194.97
2024-02-01T01:13:02.294Z,102195.00
2024-02-01T01:15:30.942Z,102189.75
2024-02-01T01:17:59.084Z,102181.03
2024-02-01T01:20:27.414Z,102189.91
2024-02-01T01:22:55.404Z,102195.28
2024-02-01T01:25:23.667Z,102197.16
2024-02-01T01:27:51.503Z,102192.72
2024-02-01T01:30:19.825Z,102185.69
2024-02-01T01:32:47.853Z,102179.59
2024-02-01T01:35:16.146Z,102175.19
2024-02-01T01:37:45.823Z,102178.72
2024-02-01T01:40:14.125Z,102179.47
2024-02-01T01:42:48.242Z,102177.63
2024-02-01T01:45:16.743Z,102177.53
2024-02-01T01:47:44.774Z,102174.75
2024-02-01T01:50:13.116Z,102171.91
2024-02-01T01:52:41.092Z,102161.25
2024-02-01T01:55:10.412Z,102158.41
2024-02-01T01:57:39.854Z,102150.25
2024-02-01T02:00:10.666Z,102151.84
2024-02-01T02:02:38.780Z,102160.69
2024-02-01T02:05:07.415Z,102148.34
2024-02-01T02:07:35.313Z,102157.16
2024-02-01T02:10:05.100Z,102155.41
2024-02-01T02:12:33.676Z,102150.16
2024-02-01T02:15:03.573Z,102151.97
2024-02-01T02:17:36.255Z,102140.47
2024-02-01T02:20:17.836Z,102137.06
2024-02-01T02:22:46.987Z,102131.03
2024-02-01T02:25:15.455Z,102124.84
2024-02-01T02:27:43.752Z,102119.56
2024-02-01T02:30:13.537Z,102120.53
2024-02-01T02:32:42.251Z,102113.50
2024-02-01T02:35:13.893Z,102110.97
2024-02-01T02:37:46.630Z,102114.50
2024-02-01T02:40:21.356Z,102116.47
2024-02-01T02:42:49.475Z,102108.47
2024-02-01T02:45:17.930Z,102113.84
2024-02-01T02:47:47.991Z,102115.63
2024-02-01T02:50:16.623Z,102114.03
2024-02-01T02:52:45.168Z,102121.19
2024-02-01T02:55:13.871Z,102107.00
2024-02-01T02:57:42.260Z,102110.56
2024-02-01T03:00:11.984Z,102106.06
2024-02-01T03:02:40.785Z,102099.91
2024-02-01T03:05:08.906Z,102092.59
2024-02-01T03:07:37.133Z,102086.22
2024-02-01T03:10:06.298Z,102086.19
2024-02-01T03:12:35.871Z,102079.84
2024-02-01T03:15:03.884Z,102082.31
2024-02-01T03:17:35.743Z,102075.03
2024-02-01T03:20:04.556Z,102073.22
2024-02-01T03:22:34.501Z,102068.59
2024-02-01T03:25:03.643Z,102054.34
2024-02-01T03:27:34.196Z,102060.41
2024-02-01T03:30:02.494Z,102072.13
2024-02-01T03:32:32.745Z,102083.00
2024-02-01T03:35:00.779Z,102081.94
2024-02-01T03:37:29.632Z,102083.00
2024-02-01T03:39:57.826Z,102082.06
2024-02-01T03:42:26.088Z,102090.25
2024-02-01T03:44:54.792Z,102084.97
2024-02-01T03:47:24.511Z,102092.91
2024-02-01T03:49:52.503Z,102079.84
2024-02-01T03:52:22.306Z,102079.03
2024-02-01T03:54:55.519Z,102087.94
2024-02-01T03:57:23.949Z,102098.56
2024-02-01T03:59:53.274Z,102092.56
2024-02-01T04:02:21.691Z,102094.41
2024-02-01T04:04:49.697Z,102078.56
2024-02-01T04:07:18.139Z,102079.44
2024-02-01T04:09:48.372Z,102065.28
2024-02-01T04:12:17.616Z,102060.06
2024-02-01T04:14:45.740Z,102055.59
2024-02-01T04:17:14.120Z,102056.56
2024-02-01T04:19:42.185Z,102049.47
2024-02-01T04:22:13.154Z,102049.28
2024-02-01T04:24:41.059Z,102053.66
2024-02-01T04:27:09.532Z,102044.59
2024-02-01T04:29:39.985Z,102046.19
2024-02-01T04:32:08.913Z,102033.69
2024-02-01T04:34:39.983Z,102037.97
2024-02-01T04:37:08.448Z,102039.53
2024-02-01T04:39:36.452Z,102052.66
2024-02-01T04:42:17.158Z,102047.31
2024-02-01T04:44:45.366Z,102053.59
2024-02-01T04:47:13.853Z,102058.03
2024-02-01T04:49:41.855Z,102052.81
2024-02-01T04:52:10.176Z,102059.91
2024-02-01T04:54:39.282Z,102051.16
2024-02-01T04:57:15.486Z,102045.09
2024-02-01T04:59:45.107Z,102042.50
2024-02-01T05:02:13.750Z,102035.53
2024-02-01T05:04:42.143Z,102045.38
2024-02-01T05:07:11.023Z,102046.34
2024-02-01T05:09:39.975Z,102050.91
2024-02-01T05:12:08.955Z,102056.16
2024-02-01T05:14:37.676Z,102053.59
2024-02-01T05:17:06.194Z,102053.72
2024-02-01T05:19:34.258Z,102037.81
2024-02-01T05:22:02.573Z,102037.00
2024-02-01T05:24:30.523Z,102033.53
2024-02-01T05:26:59.537Z,102038.03
2024-02-01T05:29:27.888Z,102046.94
2024-02-01T05:31:56.724Z,102052.25
2024-02-01T05:34:24.999Z,102060.13
2024-02-01T05:36:53.880Z,102066.31
2024-02-01T05:39:27.987Z,102057.31
2024-02-01T05:41:58.635Z,102053.59
2024-02-01T05:44:27.659Z,102057.78
2024-02-01T05:46:56.591Z,102052.41
2024-02-01T05:49:30.883Z,102050.47
2024-02-01T05:52:04.371Z,102044.22
2024-02-01T05:54:34.027Z,102027.13
2024-02-01T05:57:05.786Z,102024.44
2024-02-01T05:59:34.354Z,102026.19
2024-02-01T06:02:07.022Z,102032.28
2024-02-01T06:04:36.073Z,102043.72
2024-02-01T06:07:06.381Z,102045.63
2024-02-01T06:09:34.773Z,102049.97
2024-02-01T06:12:03.109Z,102050.97
2024-02-01T06:14:31.244Z,102042.41
2024-02-01T06:16:59.521Z,102051.31
2024-02-01T06:19:27.561Z,102058.59
2024-02-01T06:21:55.985Z,102059.56
2024-02-01T06:24:24.546Z,102067.47
2024-02-01T06:26:54.398Z,102053.44
2024-02-01T06:29:22.494Z,102048.03
2024-02-01T06:31:50.879Z,102034.91
2024-02-01T06:34:25.827Z,102028.81
2024-02-01T06:37:00.046Z,102027.16
2024-02-01T06:39:34.269Z,102019.22
2024-02-01T06:42:15.568Z,102023.75
2024-02-01T06:44:48.011Z,102038.75
2024-02-01T06:47:25.546Z,102038.00
2024-02-01T06:50:17.080Z,102053.13
2024-02-01T06:52:46.420Z,102056.69
2024-02-01T06:55:37.752Z,102048.69
2024-02-01T06:58:14.886Z,102047.75
2024-02-01T07:00:56.056Z,102052.09
2024-02-01T07:03:25.189Z,102053.66
2024-02-01T07:05:53.875Z,102054.31
2024-02-01T07:08:41.091Z,102055.06
2024-02-01T07:11:14.773Z,102052.38
2024-02-01T07:13:59.731Z,102051.28
2024-02-01T07:16:37.610Z,102043.13
2024-02-01T07:19:14.136Z,102031.34
2024-02-01T07:22:03.155Z,102033.94
2024-02-01T07:24:40.544Z,102046.41
2024-02-01T07:27:27.474Z,102050.78
2024-02-01T07:30:14.623Z,102067.34
2024-02-01T07:33:01.524Z,102056.94
2024-02-01T07:35:48.777Z,102046.31
2024-02-01T07:38:35.147Z,102052.03
2024-02-01T07:41:21.824Z,102057.50
2024-02-01T07:44:08.396Z,102061.06
2024-02-01T07:46:54.876Z,102073.53
2024-02-01T07:49:43.173Z,102067.47
2024-02-01T07:52:29.695Z,102055.19
2024-02-01T07:55:16.082Z,102035.63
2024-02-01T07:57:53.528Z,102024.28
2024-02-01T08:00:35.688Z,102024.22
2024-02-01T08:03:05.454Z,102019.00
2024-02-01T08:08:43.989Z,102045.47
2024-02-01T08:11:20.988Z,102064.91
2024-02-01T08:13:52.194Z,102063.19
2024-02-01T08:16:20.202Z,102052.41
2024-02-01T08:18:49.298Z,102045.34
2024-02-01T08:21:18.237Z,102042.50
2024-02-01T08:23:46.676Z,102035.47
2024-02-01T08:26:16.276Z,102035.38
2024-02-01T08:28:45.066Z,102006.16
2024-02-01T08:31:19.318Z,102000.69
2024-02-01T08:33:47.993Z,102006.09
2024-02-01T08:36:19.337Z,102001.38
2024-02-01T08:38:47.608Z,102003.19
2024-02-01T08:41:15.536Z,102003.13
2024-02-01T08:43:44.579Z,102005.63
2024-02-01T08:46:13.300Z,102013.59
2024-02-01T08:48:41.769Z,102023.50
2024-02-01T08:51:09.829Z,102015.53
2024-02-01T08:53:44.915Z,102019.94
2024-02-01T08:56:14.138Z,102027.09
2024-02-01T08:58:44.003Z,102033.25
2024-02-01T09:01:24.587Z,102022.78
2024-02-01T09:03:53.042Z,102021.06
2024-02-01T09:06:21.475Z,102017.50
2024-02-01T09:08:51.457Z,102022.88
2024-02-01T09:11:19.873Z,102015.81
2024-02-01T09:13:48.502Z,102018.63
2024-02-01T09:16:23.525Z,102014.06
2024-02-01T09:18:52.315Z,102021.09
2024-02-01T09:21:20.569Z,102013.94
2024-02-01T09:23:49.100Z,102014.84
2024-02-01T09:26:17.180Z,102012.25
2024-02-01T09:28:46.317Z,102021.88
2024-02-01T09:31:20.255Z,102023.66
2024-02-01T09:33:50.230Z,102025.25
2024-02-01T09:36:18.448Z,102024.34
2024-02-01T09:38:46.695Z,102036.75
2024-02-01T09:41:18.457Z,102029.72
2024-02-01T09:43:50.588Z,102018.81
2024-02-01T09:46:19.144Z,102018.75
2024-02-01T09:48:47.766Z,102017.94
2024-02-01T09:51:21.776Z,102021.38
2024-02-01T09:53:51.331Z,102023.75
2024-02-01T09:56:19.670Z,102018.47
2024-02-01T09:58:47.928Z,102017.56
2024-02-01T10:01:16.027Z,102021.38
2024-02-01T10:03:45.297Z,102016.06
2024-02-01T10:06:14.054Z,102008.97
2024-02-01T10:08:43.968Z,102005.59
2024-02-01T10:11:11.957Z,102000.50
2024-02-01T10:13:41.461Z,102009.22
2024-02-01T10:16:18.422Z,102007.53
2024-02-01T10:18:56.257Z,102005.81
2024-02-01T10:21:32.829Z,101998.72
2024-02-01T10:24:09.067Z,101983.69
2024-02-01T10:26:38.043Z,101976.59
2024-02-01T10:29:08.094Z,101968.69
2024-02-01T10:31:36.147Z,101966.03
2024-02-01T10:34:12.713Z,101978.50
2024-02-01T10:36:42.305Z,101995.38
2024-02-01T10:39:12.679Z,101983.13
2024-02-01T10:41:41.165Z,101973.34
2024-02-01T10:44:09.468Z,101975.91
2024-02-01T10:46:43.166Z,101977.66
2024-02-01T10:49:11.511Z,101981.16
2024-02-01T10:51:39.430Z,101980.28
2024-02-01T10:54:08.065Z,101969.63
2024-02-01T10:56:36.702Z,101958.00
2024-02-01T10:59:08.898Z,101959.66
2024-02-01T11:01:38.011Z,101965.28
2024-02-01T11:04:09.374Z,101972.34
2024-02-01T11:06:40.072Z,101981.97
2024-02-01T11:09:21.640Z,101987.16
2024-02-01T11:11:56.610Z,101987.94
2024-02-01T11:14:33.415Z,101994.88
2024-02-01T11:17:04.203Z,101983.56
2024-02-01T11:19:37.969Z,101985.44
2024-02-01T11:22:13.359Z,101985.50
2024-02-01T11:24:43.367Z,101977.47
2024-02-01T11:27:20.510Z,101968.66
2024-02-01T11:29:59.956Z,101966.81
2024-02-01T11:32:34.742Z,101946.63
2024-02-01T11:35:07.236Z,101930.69
2024-02-01T11:37:35.156Z,101916.75
2024-02-01T11:40:03.808Z,101917.66
2024-02-01T11:42:33.839Z,101921.25
2024-02-01T11:45:05.695Z,101916.06
2024-02-01T11:47:35.070Z,101924.97
2024-02-01T11:50:07.605Z,101910.84
2024-02-01T11:52:45.374Z,101927.63
2024-02-01T11:55:16.238Z,101959.56
2024-02-01T11:57:52.093Z,101959.59
2024-02-01T12:00:32.727Z,101941.97
2024-02-01T12:03:10.370Z,101979.94
2024-02-01T12:05:38.829Z,101987.94
2024-02-01T12:08:08.127Z,101931.38
2024-02-01T12:10:36.645Z,101930.66
2024-02-01T12:13:05.211Z,101973.09
2024-02-01T12:15:37.861Z,101981.03
2024-02-01T12:18:10.398Z,101958.94
2024-02-01T12:20:42.782Z,101950.06
2024-02-01T12:23:12.985Z,101942.00
2024-02-01T12:25:45.523Z,101953.44
2024-02-01T12:28:13.433Z,101951.50
2024-02-01T12:30:46.808Z,101942.59
2024-02-01T12:33:16.051Z,101946.06
2024-02-01T12:35:46.180Z,101930.84
2024-02-01T12:38:16.526Z,101915.50
2024-02-01T12:40:46.965Z,101922.56
2024-02-01T12:43:15.730Z,101916.44
2024-02-01T12:45:48.826Z,101906.81
2024-02-01T12:48:18.304Z,101905.00
2024-02-01T12:50:47.187Z,101913.59
2024-02-01T12:53:15.271Z,101925.25
2024-02-01T12:55:43.458Z,101931.59
2024-02-01T12:58:11.298Z,101934.25
2024-02-01T13:00:39.626Z,101913.94
2024-02-01T13:03:07.619Z,101921.09
2024-02-01T13:05:35.979Z,101915.03
2024-02-01T13:08:05.951Z,101891.16
2024-02-01T13:10:40.571Z,101869.91
2024-02-01T13:13:09.301Z,101868.16
2024-02-01T13:15:37.378Z,101857.66
2024-02-01T13:18:13.762Z,101858.63
2024-02-01T13:20:44.813Z,101852.44
2024-02-01T13:23:14.133Z,101870.09
2024-02-01T13:25:43.560Z,101887.78
2024-02-01T13:28:11.942Z,101902.88
2024-02-01T13:30:40.774Z,101903.81
2024-02-01T13:33:09.133Z,101895.00
2024-02-01T13:35:40.289Z,101900.22
2024-02-01T13:38:12.419Z,101897.41
2024-02-01T13:40:42.655Z,101899.16
2024-02-01T13:43:12.746Z,101898.28
2024-02-01T13:45:40.738Z,101915.00
2024-02-01T13:48:09.454Z,101918.44
2024-02-01T13:50:37.424Z,101912.13
2024-02-01T13:53:05.711Z,101919.06
2024-02-01T13:55:33.511Z,101918.13
2024-02-01T13:58:01.677Z,101926.81
2024-02-01T14:00:33.193Z,101920.59
2024-02-01T14:03:05.543Z,101910.75
2024-02-01T14:05:33.620Z,101897.38
2024-02-01T14:08:03.382Z,101897.38
2024-02-01T14:10:31.346Z,101893.94
2024-02-01T14:12:59.907Z,101901.00
2024-02-01T14:15:28.369Z,101899.13
2024-02-01T14:17:56.773Z,101904.56
2024-02-01T14:20:24.982Z,101916.94
2024-02-01T14:22:53.321Z,101920.72
2024-02-01T14:25:21.130Z,101911.84
2024-02-01T14:27:49.313Z,101911.94
2024-02-01T14:30:18.501Z,101907.50
2024-02-01T14:32:47.477Z,101907.63
2024-02-01T14:35:16.178Z,101894.38
2024-02-01T14:37:45.637Z,101891.69
2024-02-01T14:40:14.412Z,101894.44
2024-02-01T14:42:44.286Z,101893.53
2024-02-01T14:45:12.933Z,101888.31
2024-02-01T14:47:42.009Z,101892.72
2024-02-01T14:50:10.322Z,101892.72
2024-02-01T14:52:38.581Z,101888.34
2024-02-01T14:55:10.956Z,101885.69
2024-02-01T14:57:39.746Z,101899.91
2024-02-01T15:00:11.456Z,101897.97
2024-02-01T15:02:39.823Z,101899.63
2024-02-01T15:05:14.871Z,101915.47
2024-02-01T15:07:43.571Z,101904.63
2024-02-01T15:10:16.176Z,101898.53
2024-02-01T15:12:46.304Z,101909.03
2024-02-01T15:15:14.489Z,101909.94
2024-02-01T15:17:43.535Z,101904.72
2024-02-01T15:20:14.895Z,101897.53
2024-02-01T15:22:44.162Z,101908.06
2024-02-01T15:25:14.434Z,101899.03
2024-02-01T15:27:43.542Z,101904.31
2024-02-01T15:30:16.806Z,101923.78
2024-02-01T15:32:45.388Z,101914.00
2024-02-01T15:35:13.544Z,101913.94
2024-02-01T15:37:42.159Z,101912.13
2024-02-01T15:40:11.810Z,101902.47
2024-02-01T15:42:45.546Z,101892.88
2024-02-01T15:45:13.970Z,101885.78
2024-02-01T15:47:47.805Z,101867.31
2024-02-01T15:50:19.557Z,101865.72
2024-02-01T15:52:51.493Z,101867.38
2024-02-01T15:55:20.095Z,101856.88
2024-02-01T15:57:48.570Z,101841.97
2024-02-01T16:00:16.998Z,101848.31
2024-02-01T16:02:45.333Z,101845.59
2024-02-01T16:05:13.952Z,101847.50
2024-02-01T16:07:43.413Z,101869.63
2024-02-01T16:10:15.522Z,101874.13
2024-02-01T16:12:44.289Z,101874.09
2024-02-01T16:15:16.608Z,101863.59
2024-02-01T16:17:45.127Z,101865.41
2024-02-01T16:20:29.124Z,101865.47
2024-02-01T16:22:57.492Z,101878.72
2024-02-01T16:25:34.510Z,101878.84
2024-02-01T16:28:08.802Z,101871.78
2024-02-01T16:30:59.473Z,101868.25
2024-02-01T16:33:31.809Z,101871.66
2024-02-01T16:36:06.956Z,101875.28
2024-02-01T16:38:36.248Z,101880.53
2024-02-01T16:41:04.566Z,101876.91
2024-02-01T16:43:37.402Z,101882.22
2024-02-01T16:46:25.724Z,101898.00
2024-02-01T16:48:54.102Z,101897.81
2024-02-01T16:51:23.480Z,101882.84
2024-02-01T16:53:53.564Z,101874.50
2024-02-01T16:56:21.664Z,101885.16
2024-02-01T16:58:51.076Z,101884.53
2024-02-01T17:01:34.500Z,101887.81
2024-02-01T17:04:05.784Z,101888.00
2024-02-01T17:06:34.803Z,101886.09
2024-02-01T17:09:04.604Z,101887.06
2024-02-01T17:11:37.204Z,101885.28
2024-02-01T17:14:17.634Z,101887.25
2024-02-01T17:16:45.645Z,101893.44
2024-02-01T17:19:15.005Z,101879.34
2024-02-01T17:21:43.128Z,101879.41
2024-02-01T17:24:11.554Z,101887.44
2024-02-01T17:26:43.592Z,101890.19
2024-02-01T17:29:12.291Z,101886.84
2024-02-01T17:31:41.623Z,101890.38
2024-02-01T17:34:18.824Z,101886.00
2024-02-01T17:36:47.173Z,101892.25
2024-02-01T17:39:35.804Z,101894.13
2024-02-01T17:42:09.331Z,101894.25
2024-02-01T17:44:45.002Z,101896.94
2024-02-01T17:47:14.504Z,101892.56
2024-02-01T17:49:43.617Z,101905.94
2024-02-01T17:52:30.435Z,101899.84
2024-02-01T17:55:00.964Z,101895.44
2024-02-01T17:57:37.382Z,101896.31
2024-02-01T18:00:15.505Z,101885.63
2024-02-01T18:02:46.910Z,101879.44
2024-02-01T18:05:17.034Z,101887.25
2024-02-01T18:07:45.177Z,101884.53
2024-02-01T18:10:13.532Z,101891.47
2024-02-01T18:12:43.317Z,101902.03
2024-02-01T18:15:34.636Z,101899.31
2024-02-01T18:18:05.607Z,101904.56
2024-02-01T18:20:34.094Z,101891.97
2024-02-01T18:23:02.259Z,101893.81
2024-02-01T18:25:34.946Z,101899.78
2024-02-01T18:28:05.332Z,101900.66
2024-02-01T18:30:37.530Z,101903.25
2024-02-01T18:33:07.504Z,101913.94
2024-02-01T18:35:40.974Z,101908.56
2024-02-01T18:38:08.957Z,101909.69
2024-02-01T18:40:37.615Z,101903.50
2024-02-01T18:43:14.939Z,101904.50
2024-02-01T18:45:47.276Z,101910.72
2024-02-01T18:48:18.299Z,101920.38
2024-02-01T18:50:46.765Z,101912.56
2024-02-01T18:53:31.279Z,101900.13
2024-02-01T18:55:59.667Z,101908.06
2024-02-01T18:58:33.548Z,101910.78
2024-02-01T19:01:02.872Z,101908.06
2024-02-01T19:03:49.493Z,101918.81
2024-02-01T19:06:25.606Z,101915.31
2024-02-01T19:08:53.488Z,101925.19
2024-02-01T19:11:21.932Z,101936.75
2024-02-01T19:13:53.901Z,101938.63
2024-02-01T19:16:22.960Z,101930.72
2024-02-01T19:18:53.592Z,101925.41
2024-02-01T19:21:24.492Z,101933.41
2024-02-01T19:23:53.144Z,101927.28
2024-02-01T19:26:21.608Z,101934.34
2024-02-01T19:29:07.372Z,101934.47
2024-02-01T19:31:36.342Z,101935.34
2024-02-01T19:34:05.156Z,101947.66
2024-02-01T19:36:36.939Z,101949.41
2024-02-01T19:39:05.855Z,101947.69
2024-02-01T19:41:34.339Z,101953.97
2024-02-01T19:44:06.941Z,101964.63
2024-02-01T19:46:35.857Z,101967.38
2024-02-01T19:49:04.292Z,101967.47
2024-02-01T19:51:32.960Z,101968.34
2024-02-01T19:54:01.124Z,101971.03
2024-02-01T19:56:29.473Z,101973.72
2024-02-01T19:58:57.515Z,101974.66
2024-02-01T20:01:26.430Z,101971.19
2024-02-01T20:03:55.379Z,101968.53
2024-02-01T20:06:30.683Z,101971.22
2024-02-01T20:09:00.772Z,101982.72
2024-02-01T20:11:30.941Z,101988.94
2024-02-01T20:14:01.335Z,101979.13
2024-02-01T20:16:29.785Z,101978.50
2024-02-01T20:18:59.386Z,101974.69
2024-02-01T20:21:31.204Z,101977.03
2024-02-01T20:23:59.296Z,101973.31
2024-02-01T20:26:27.964Z,101969.59
2024-02-01T20:28:58.490Z,101975.59
2024-02-01T20:31:27.943Z,101986.22
2024-02-01T20:33:56.283Z,101988.69
2024-02-01T20:36:47.590Z,101987.56
2024-02-01T20:39:25.227Z,101994.63
2024-02-01T20:41:53.898Z,101994.78
2024-02-01T20:44:27.077Z,101993.78
2024-02-01T20:46:55.476Z,102004.53
2024-02-01T20:49:23.615Z,102005.44
2024-02-01T20:51:59.672Z,102003.75
2024-02-01T20:54:31.975Z,101998.59
2024-02-01T20:57:19.418Z,102015.34
2024-02-01T20:59:48.805Z,102025.16
2024-02-01T21:02:40.457Z,102025.16
2024-02-01T21:05:14.765Z,102018.28
2024-02-01T21:07:43.301Z,102011.19
2024-02-01T21:10:17.648Z,102013.94
2024-02-01T21:12:46.663Z,102014.84
2024-02-01T21:15:15.804Z,102012.31
2024-02-01T21:17:45.659Z,102016.72
2024-02-01T21:20:15.816Z,102013.25
2024-02-01T21:22:49.015Z,102019.47
2024-02-01T21:25:52.554Z,102016.88
2024-02-01T21:28:27.796Z,102015.03
2024-02-01T21:30:56.049Z,102032.66
2024-02-01T21:33:24.810Z,102032.50
2024-02-01T21:35:53.652Z,102036.75
2024-02-01T21:38:22.310Z,102037.50
2024-02-01T21:40:50.399Z,102035.63
2024-02-01T21:43:20.417Z,102032.94
2024-02-01T21:45:48.987Z,102030.00
2024-02-01T21:48:17.690Z,102028.31
2024-02-01T21:50:47.202Z,102035.22
2024-02-01T21:53:16.706Z,102031.56
2024-02-01T21:55:46.206Z,102046.72
2024-02-01T21:58:15.267Z,102052.03
2024-02-01T22:00:43.509Z,102039.72
2024-02-01T22:03:14.851Z,102037.13
2024-02-01T22:05:43.498Z,102041.66
2024-02-01T22:08:11.895Z,102041.72
2024-02-01T22:10:42.805Z,102026.66
2024-02-01T22:13:11.668Z,102025.00
2024-02-01T22:15:39.884Z,102033.00
2024-02-01T22:18:08.504Z,102037.63
2024-02-01T22:20:37.193Z,102049.00
2024-02-01T22:23:07.620Z,102046.47
2024-02-01T22:25:35.560Z,102042.09
2024-02-01T22:28:03.892Z,102037.72
2024-02-01T22:30:31.980Z,102036.91
2024-02-01T22:33:02.614Z,102036.94
2024-02-01T22:35:30.623Z,102036.09
2024-02-01T22:37:59.394Z,102038.81
2024-02-01T22:40:27.297Z,102039.72
2024-02-01T22:42:55.478Z,102029.19
2024-02-01T22:45:23.413Z,102028.38
2024-02-01T22:47:51.733Z,102034.56
2024-02-01T22:50:20.259Z,102035.44
2024-02-01T22:52:48.651Z,102038.06
2024-02-01T22:55:16.644Z,102040.63
2024-02-01T22:57:45.046Z,102042.34
2024-02-01T23:00:18.142Z,102055.50
2024-02-01T23:02:46.684Z,102067.84
2024-02-01T23:05:14.809Z,102056.97
2024-02-01T23:07:43.321Z,102053.31
2024-02-01T23:10:12.807Z,102059.31
2024-02-01T23:12:42.129Z,102061.31
2024-02-01T23:15:10.094Z,102068.97
2024-02-01T23:17:38.544Z,102049.34
2024-02-01T23:20:11.024Z,102053.69
2024-02-01T23:22:39.638Z,102048.47
2024-02-01T23:25:09.380Z,102040.38
2024-02-01T23:27:37.757Z,102041.41
2024-02-01T23:30:06.414Z,102045.97
2024-02-01T23:32:34.781Z,102050.31
2024-02-01T23:35:02.839Z,102047.81
2024-02-01T23:37:31.634Z,102046.25
2024-02-01T23:39:59.640Z,102041.88
2024-02-01T23:42:30.232Z,102043.63
2024-02-01T23:44:58.899Z,102048.13
2024-02-01T23:47:27.321Z,102045.53
2024-02-01T23:49:55.439Z,102043.88
2024-02-01T23:52:23.669Z,102041.28
2024-02-01T23:54:51.642Z,102046.66
2024-02-01T23:57:19.901Z,102051.09
2024-02-01T23:59:47.981Z,102050.28
